Portland, Oregon
Traffic Map
Current Weather Conditions
Portland, Oregon
Overcast Light Rain
Overcast
50°
Feels Like: 50°
Wind Chill: 50° Ceiling: 4500
Heat Index: 50° Visibility: 7mi
Dew Point: 44° Wind: 9mph
Humidity: 80% Direction: 180° (S)
Pressure: 30.22in Gusts: 0mph
Raw Report DataKPDX 140053Z 18008KT 7SM -RA BKN045 OVC060 10/07 A3022 RMK AO2 SLP233 P0004 T01000067
Traffic Incident Summary
Active as of:
Severity:
Category:
InformationThere was an issue retrieving the traffic information for this location. Please try a different location or try again shortly.
Advertisements
Track Severe Weather on mobile